sensor_id;sensor_type;location;lat;lon;timestamp;P1;durP1;ratioP1;P2;durP2;ratioP2
52868;SDS011;39100;53.480;6.158;2023-02-13T00:01:30;5.60;;;3.40;;
52868;SDS011;39100;53.480;6.158;2023-02-13T00:03:56;6.03;;;3.40;;
52868;SDS011;39100;53.480;6.158;2023-02-13T00:06:21;7.22;;;3.67;;
52868;SDS011;39100;53.480;6.158;2023-02-13T00:08:47;5.25;;;3.70;;
52868;SDS011;39100;53.480;6.158;2023-02-13T00:11:13;7.80;;;3.90;;
52868;SDS011;39100;53.480;6.158;2023-02-13T00:13:38;7.30;;;4.35;;
52868;SDS011;39100;53.480;6.158;2023-02-13T00:16:04;6.55;;;3.97;;
52868;SDS011;39100;53.480;6.158;2023-02-13T00:18:32;6.80;;;3.60;;
52868;SDS011;39100;53.480;6.158;2023-02-13T00:21:01;6.40;;;4.00;;
52868;SDS011;39100;53.480;6.158;2023-02-13T00:23:28;7.07;;;3.63;;
52868;SDS011;39100;53.480;6.158;2023-02-13T00:25:54;5.47;;;3.78;;
52868;SDS011;39100;53.480;6.158;2023-02-13T00:28:20;6.10;;;3.95;;
52868;SDS011;39100;53.480;6.158;2023-02-13T00:30:46;5.38;;;3.55;;
52868;SDS011;39100;53.480;6.158;2023-02-13T00:33:11;7.07;;;3.85;;
52868;SDS011;39100;53.480;6.158;2023-02-13T00:35:37;6.35;;;3.83;;
52868;SDS011;39100;53.480;6.158;2023-02-13T00:38:02;6.45;;;3.72;;
52868;SDS011;39100;53.480;6.158;2023-02-13T00:40:28;5.13;;;3.55;;
52868;SDS011;39100;53.480;6.158;2023-02-13T00:42:53;7.18;;;4.28;;
52868;SDS011;39100;53.480;6.158;2023-02-13T00:45:19;7.10;;;3.60;;
52868;SDS011;39100;53.480;6.158;2023-02-13T00:47:44;6.28;;;3.58;;
52868;SDS011;39100;53.480;6.158;2023-02-13T00:50:10;7.40;;;4.32;;
52868;SDS011;39100;53.480;6.158;2023-02-13T00:52:35;7.28;;;4.15;;
52868;SDS011;39100;53.480;6.158;2023-02-13T00:55:01;5.75;;;3.80;;
52868;SDS011;39100;53.480;6.158;2023-02-13T00:57:26;6.25;;;3.47;;
52868;SDS011;39100;53.480;6.158;2023-02-13T00:59:53;6.68;;;3.60;;
52868;SDS011;39100;53.480;6.158;2023-02-13T01:02:18;6.07;;;3.60;;
52868;SDS011;39100;53.480;6.158;2023-02-13T01:04:44;6.38;;;3.83;;
52868;SDS011;39100;53.480;6.158;2023-02-13T01:07:09;6.80;;;4.15;;
52868;SDS011;39100;53.480;6.158;2023-02-13T01:09:35;8.15;;;4.65;;
52868;SDS011;39100;53.480;6.158;2023-02-13T01:12:00;7.82;;;4.63;;
52868;SDS011;39100;53.480;6.158;2023-02-13T01:14:26;7.80;;;4.40;;
52868;SDS011;39100;53.480;6.158;2023-02-13T01:16:52;6.20;;;4.00;;
52868;SDS011;39100;53.480;6.158;2023-02-13T01:19:17;7.57;;;4.20;;
52868;SDS011;39100;53.480;6.158;2023-02-13T01:21:43;8.98;;;4.93;;
52868;SDS011;39100;53.480;6.158;2023-02-13T01:24:08;6.93;;;3.95;;
52868;SDS011;39100;53.480;6.158;2023-02-13T01:26:34;9.13;;;4.50;;
52868;SDS011;39100;53.480;6.158;2023-02-13T01:29:00;6.35;;;4.03;;
52868;SDS011;39100;53.480;6.158;2023-02-13T01:31:26;7.63;;;4.82;;
52868;SDS011;39100;53.480;6.158;2023-02-13T01:33:54;7.65;;;4.20;;
52868;SDS011;39100;53.480;6.158;2023-02-13T01:36:21;8.23;;;4.57;;
52868;SDS011;39100;53.480;6.158;2023-02-13T01:38:47;7.13;;;4.53;;
52868;SDS011;39100;53.480;6.158;2023-02-13T01:41:12;6.80;;;3.85;;
52868;SDS011;39100;53.480;6.158;2023-02-13T01:46:15;9.23;;;4.80;;
52868;SDS011;39100;53.480;6.158;2023-02-13T01:49:08;6.47;;;4.10;;
52868;SDS011;39100;53.480;6.158;2023-02-13T01:51:44;7.18;;;4.75;;
52868;SDS011;39100;53.480;6.158;2023-02-13T01:54:14;10.10;;;5.80;;
52868;SDS011;39100;53.480;6.158;2023-02-13T01:56:44;7.88;;;4.55;;
52868;SDS011;39100;53.480;6.158;2023-02-13T01:59:15;9.82;;;5.18;;
52868;SDS011;39100;53.480;6.158;2023-02-13T02:01:43;9.07;;;4.60;;
52868;SDS011;39100;53.480;6.158;2023-02-13T02:04:12;7.63;;;4.80;;
52868;SDS011;39100;53.480;6.158;2023-02-13T02:06:48;7.85;;;4.63;;
52868;SDS011;39100;53.480;6.158;2023-02-13T02:09:18;9.10;;;4.93;;
52868;SDS011;39100;53.480;6.158;2023-02-13T02:11:54;10.48;;;5.07;;
52868;SDS011;39100;53.480;6.158;2023-02-13T02:14:25;7.50;;;4.80;;
52868;SDS011;39100;53.480;6.158;2023-02-13T02:16:51;6.95;;;4.30;;
52868;SDS011;39100;53.480;6.158;2023-02-13T02:19:41;9.23;;;5.75;;
52868;SDS011;39100;53.480;6.158;2023-02-13T02:22:21;7.80;;;4.38;;
52868;SDS011;39100;53.480;6.158;2023-02-13T02:31:00;8.90;;;5.28;;
52868;SDS011;39100;53.480;6.158;2023-02-13T02:34:29;8.95;;;5.30;;
52868;SDS011;39100;53.480;6.158;2023-02-13T02:42:27;7.97;;;4.90;;
52868;SDS011;39100;53.480;6.158;2023-02-13T02:45:04;11.77;;;6.05;;
52868;SDS011;39100;53.480;6.158;2023-02-13T02:51:22;11.35;;;5.70;;
52868;SDS011;39100;53.480;6.158;2023-02-13T02:53:55;11.13;;;6.28;;
52868;SDS011;39100;53.480;6.158;2023-02-13T02:56:56;9.98;;;5.60;;
52868;SDS011;39100;53.480;6.158;2023-02-13T02:59:25;8.52;;;5.13;;
52868;SDS011;39100;53.480;6.158;2023-02-13T03:02:12;9.02;;;5.63;;
52868;SDS011;39100;53.480;6.158;2023-02-13T03:04:58;8.55;;;5.15;;
52868;SDS011;39100;53.480;6.158;2023-02-13T03:07:44;7.72;;;4.97;;
52868;SDS011;39100;53.480;6.158;2023-02-13T03:10:22;9.20;;;5.22;;
52868;SDS011;39100;53.480;6.158;2023-02-13T03:13:27;10.55;;;6.38;;
52868;SDS011;39100;53.480;6.158;2023-02-13T03:16:05;7.88;;;4.93;;
52868;SDS011;39100;53.480;6.158;2023-02-13T03:18:55;8.50;;;5.18;;
52868;SDS011;39100;53.480;6.158;2023-02-13T03:22:01;9.77;;;4.93;;
52868;SDS011;39100;53.480;6.158;2023-02-13T03:24:59;7.50;;;4.28;;
52868;SDS011;39100;53.480;6.158;2023-02-13T03:31:20;8.70;;;4.55;;
52868;SDS011;39100;53.480;6.158;2023-02-13T03:36:40;7.80;;;4.40;;
52868;SDS011;39100;53.480;6.158;2023-02-13T03:39:42;5.47;;;4.07;;
52868;SDS011;39100;53.480;6.158;2023-02-13T03:42:26;7.78;;;4.35;;
52868;SDS011;39100;53.480;6.158;2023-02-13T03:44:54;5.85;;;3.92;;
52868;SDS011;39100;53.480;6.158;2023-02-13T03:47:54;6.68;;;3.47;;
52868;SDS011;39100;53.480;6.158;2023-02-13T03:50:23;7.28;;;3.95;;
52868;SDS011;39100;53.480;6.158;2023-02-13T03:52:54;7.45;;;4.47;;
52868;SDS011;39100;53.480;6.158;2023-02-13T03:55:27;6.15;;;3.95;;
52868;SDS011;39100;53.480;6.158;2023-02-13T03:58:19;6.28;;;3.63;;
52868;SDS011;39100;53.480;6.158;2023-02-13T04:01:07;7.25;;;3.80;;
52868;SDS011;39100;53.480;6.158;2023-02-13T04:03:39;7.10;;;4.28;;
52868;SDS011;39100;53.480;6.158;2023-02-13T04:06:15;5.55;;;3.35;;
52868;SDS011;39100;53.480;6.158;2023-02-13T04:08:47;6.70;;;3.75;;
52868;SDS011;39100;53.480;6.158;2023-02-13T04:16:34;6.90;;;4.13;;
52868;SDS011;39100;53.480;6.158;2023-02-13T04:19:06;7.05;;;4.13;;
52868;SDS011;39100;53.480;6.158;2023-02-13T04:21:34;7.15;;;3.72;;
52868;SDS011;39100;53.480;6.158;2023-02-13T04:24:02;6.88;;;3.88;;
52868;SDS011;39100;53.480;6.158;2023-02-13T04:26:32;6.38;;;3.65;;
52868;SDS011;39100;53.480;6.158;2023-02-13T04:29:02;6.07;;;3.80;;
52868;SDS011;39100;53.480;6.158;2023-02-13T04:31:27;8.23;;;4.45;;
52868;SDS011;39100;53.480;6.158;2023-02-13T04:33:53;6.22;;;4.15;;
52868;SDS011;39100;53.480;6.158;2023-02-13T04:36:18;6.82;;;4.10;;
52868;SDS011;39100;53.480;6.158;2023-02-13T04:38:44;6.45;;;3.95;;
52868;SDS011;39100;53.480;6.158;2023-02-13T04:41:10;6.93;;;3.90;;
52868;SDS011;39100;53.480;6.158;2023-02-13T04:43:36;6.57;;;3.58;;
52868;SDS011;39100;53.480;6.158;2023-02-13T04:46:01;6.53;;;3.45;;
52868;SDS011;39100;53.480;6.158;2023-02-13T04:48:27;6.40;;;3.75;;
52868;SDS011;39100;53.480;6.158;2023-02-13T04:50:53;5.15;;;3.08;;
52868;SDS011;39100;53.480;6.158;2023-02-13T04:53:18;4.90;;;3.05;;
52868;SDS011;39100;53.480;6.158;2023-02-13T04:55:44;6.32;;;3.83;;
52868;SDS011;39100;53.480;6.158;2023-02-13T04:58:10;6.72;;;4.00;;
52868;SDS011;39100;53.480;6.158;2023-02-13T05:00:35;5.93;;;3.88;;
52868;SDS011;39100;53.480;6.158;2023-02-13T05:03:05;7.22;;;3.90;;
52868;SDS011;39100;53.480;6.158;2023-02-13T05:05:32;6.13;;;3.83;;
52868;SDS011;39100;53.480;6.158;2023-02-13T05:07:58;5.80;;;3.55;;
52868;SDS011;39100;53.480;6.158;2023-02-13T05:10:24;5.75;;;3.53;;
52868;SDS011;39100;53.480;6.158;2023-02-13T05:12:50;6.53;;;3.97;;
52868;SDS011;39100;53.480;6.158;2023-02-13T05:15:15;5.47;;;3.78;;
52868;SDS011;39100;53.480;6.158;2023-02-13T05:17:44;5.88;;;3.55;;
52868;SDS011;39100;53.480;6.158;2023-02-13T05:20:11;7.00;;;4.00;;
52868;SDS011;39100;53.480;6.158;2023-02-13T05:22:42;6.28;;;3.92;;
52868;SDS011;39100;53.480;6.158;2023-02-13T05:25:34;6.30;;;3.58;;
52868;SDS011;39100;53.480;6.158;2023-02-13T05:28:00;5.72;;;3.10;;
52868;SDS011;39100;53.480;6.158;2023-02-13T05:30:26;6.50;;;3.60;;
52868;SDS011;39100;53.480;6.158;2023-02-13T05:32:52;6.63;;;3.25;;
52868;SDS011;39100;53.480;6.158;2023-02-13T05:35:19;4.65;;;2.83;;
52868;SDS011;39100;53.480;6.158;2023-02-13T05:37:45;6.75;;;3.35;;
52868;SDS011;39100;53.480;6.158;2023-02-13T05:40:11;4.97;;;3.42;;
52868;SDS011;39100;53.480;6.158;2023-02-13T05:42:37;6.88;;;4.07;;
52868;SDS011;39100;53.480;6.158;2023-02-13T05:45:04;6.45;;;3.42;;
52868;SDS011;39100;53.480;6.158;2023-02-13T05:47:30;5.57;;;2.90;;
52868;SDS011;39100;53.480;6.158;2023-02-13T05:49:55;4.35;;;3.03;;
52868;SDS011;39100;53.480;6.158;2023-02-13T05:52:21;5.97;;;3.80;;
52868;SDS011;39100;53.480;6.158;2023-02-13T05:54:47;5.05;;;3.17;;
52868;SDS011;39100;53.480;6.158;2023-02-13T05:57:13;6.72;;;3.38;;
52868;SDS011;39100;53.480;6.158;2023-02-13T05:59:39;5.13;;;3.03;;
52868;SDS011;39100;53.480;6.158;2023-02-13T06:02:04;7.43;;;4.03;;
52868;SDS011;39100;53.480;6.158;2023-02-13T06:04:30;7.47;;;3.95;;
52868;SDS011;39100;53.480;6.158;2023-02-13T06:06:55;6.85;;;3.35;;
52868;SDS011;39100;53.480;6.158;2023-02-13T06:09:21;5.38;;;3.42;;
52868;SDS011;39100;53.480;6.158;2023-02-13T06:11:47;6.05;;;3.13;;
52868;SDS011;39100;53.480;6.158;2023-02-13T06:14:12;5.25;;;3.55;;
52868;SDS011;39100;53.480;6.158;2023-02-13T06:16:38;7.03;;;4.10;;
52868;SDS011;39100;53.480;6.158;2023-02-13T06:19:05;6.13;;;3.53;;
52868;SDS011;39100;53.480;6.158;2023-02-13T06:21:30;7.00;;;3.88;;
52868;SDS011;39100;53.480;6.158;2023-02-13T06:23:57;8.45;;;4.72;;
52868;SDS011;39100;53.480;6.158;2023-02-13T06:26:23;6.43;;;4.13;;
52868;SDS011;39100;53.480;6.158;2023-02-13T06:28:48;5.32;;;3.78;;
52868;SDS011;39100;53.480;6.158;2023-02-13T06:31:14;7.57;;;4.47;;
52868;SDS011;39100;53.480;6.158;2023-02-13T06:33:40;6.93;;;4.20;;
52868;SDS011;39100;53.480;6.158;2023-02-13T06:36:05;6.82;;;3.85;;
52868;SDS011;39100;53.480;6.158;2023-02-13T06:38:31;8.48;;;4.47;;
52868;SDS011;39100;53.480;6.158;2023-02-13T06:40:58;8.35;;;4.32;;
52868;SDS011;39100;53.480;6.158;2023-02-13T06:43:25;10.23;;;4.57;;
52868;SDS011;39100;53.480;6.158;2023-02-13T06:45:51;7.43;;;4.05;;
52868;SDS011;39100;53.480;6.158;2023-02-13T06:48:18;7.47;;;4.00;;
52868;SDS011;39100;53.480;6.158;2023-02-13T06:50:44;8.20;;;3.55;;
52868;SDS011;39100;53.480;6.158;2023-02-13T06:53:09;5.35;;;3.25;;
52868;SDS011;39100;53.480;6.158;2023-02-13T06:55:35;6.75;;;4.43;;
52868;SDS011;39100;53.480;6.158;2023-02-13T06:58:03;6.22;;;3.72;;
52868;SDS011;39100;53.480;6.158;2023-02-13T07:00:29;9.13;;;4.32;;
52868;SDS011;39100;53.480;6.158;2023-02-13T07:03:00;6.85;;;3.55;;
52868;SDS011;39100;53.480;6.158;2023-02-13T07:05:26;7.40;;;3.92;;
52868;SDS011;39100;53.480;6.158;2023-02-13T07:07:52;7.72;;;4.03;;
52868;SDS011;39100;53.480;6.158;2023-02-13T07:10:18;8.00;;;4.50;;
52868;SDS011;39100;53.480;6.158;2023-02-13T07:12:43;8.25;;;4.15;;
52868;SDS011;39100;53.480;6.158;2023-02-13T07:15:09;6.00;;;3.85;;
52868;SDS011;39100;53.480;6.158;2023-02-13T07:17:35;6.93;;;3.90;;
52868;SDS011;39100;53.480;6.158;2023-02-13T07:20:01;8.40;;;4.05;;
52868;SDS011;39100;53.480;6.158;2023-02-13T07:22:29;7.88;;;4.05;;
52868;SDS011;39100;53.480;6.158;2023-02-13T07:24:56;8.30;;;4.70;;
52868;SDS011;39100;53.480;6.158;2023-02-13T07:27:23;6.68;;;3.78;;
52868;SDS011;39100;53.480;6.158;2023-02-13T07:29:48;7.55;;;4.00;;
52868;SDS011;39100;53.480;6.158;2023-02-13T07:32:14;7.72;;;4.28;;
52868;SDS011;39100;53.480;6.158;2023-02-13T07:34:39;9.57;;;5.18;;
52868;SDS011;39100;53.480;6.158;2023-02-13T07:37:05;7.32;;;4.20;;
52868;SDS011;39100;53.480;6.158;2023-02-13T07:39:30;7.15;;;4.28;;
52868;SDS011;39100;53.480;6.158;2023-02-13T07:41:56;8.13;;;4.40;;
52868;SDS011;39100;53.480;6.158;2023-02-13T07:44:22;7.75;;;4.35;;
52868;SDS011;39100;53.480;6.158;2023-02-13T07:46:47;7.13;;;4.15;;
52868;SDS011;39100;53.480;6.158;2023-02-13T07:49:13;14.90;;;4.72;;
52868;SDS011;39100;53.480;6.158;2023-02-13T07:51:38;8.90;;;4.97;;
52868;SDS011;39100;53.480;6.158;2023-02-13T07:54:04;10.43;;;5.93;;
52868;SDS011;39100;53.480;6.158;2023-02-13T07:56:30;13.43;;;5.65;;
52868;SDS011;39100;53.480;6.158;2023-02-13T07:58:55;12.55;;;6.68;;
52868;SDS011;39100;53.480;6.158;2023-02-13T08:01:21;10.18;;;6.47;;
52868;SDS011;39100;53.480;6.158;2023-02-13T08:03:47;10.88;;;6.15;;
52868;SDS011;39100;53.480;6.158;2023-02-13T08:06:17;11.15;;;6.25;;
52868;SDS011;39100;53.480;6.158;2023-02-13T08:08:43;11.05;;;6.32;;
52868;SDS011;39100;53.480;6.158;2023-02-13T08:11:42;11.35;;;6.93;;
52868;SDS011;39100;53.480;6.158;2023-02-13T08:14:20;11.15;;;7.57;;
52868;SDS011;39100;53.480;6.158;2023-02-13T08:16:50;10.77;;;6.70;;
52868;SDS011;39100;53.480;6.158;2023-02-13T08:19:17;11.43;;;6.22;;
52868;SDS011;39100;53.480;6.158;2023-02-13T08:21:42;12.18;;;6.00;;
52868;SDS011;39100;53.480;6.158;2023-02-13T08:24:08;8.45;;;5.68;;
52868;SDS011;39100;53.480;6.158;2023-02-13T08:26:34;10.20;;;5.10;;
52868;SDS011;39100;53.480;6.158;2023-02-13T08:29:00;13.15;;;5.55;;
52868;SDS011;39100;53.480;6.158;2023-02-13T08:31:27;10.27;;;6.07;;
52868;SDS011;39100;53.480;6.158;2023-02-13T08:33:54;8.00;;;5.00;;
52868;SDS011;39100;53.480;6.158;2023-02-13T08:36:20;11.25;;;5.95;;
52868;SDS011;39100;53.480;6.158;2023-02-13T08:38:46;8.82;;;5.20;;
52868;SDS011;39100;53.480;6.158;2023-02-13T08:41:12;11.48;;;5.72;;
52868;SDS011;39100;53.480;6.158;2023-02-13T08:43:38;12.07;;;5.47;;
52868;SDS011;39100;53.480;6.158;2023-02-13T08:46:03;8.68;;;5.63;;
52868;SDS011;39100;53.480;6.158;2023-02-13T08:48:29;8.48;;;5.03;;
52868;SDS011;39100;53.480;6.158;2023-02-13T08:50:55;8.80;;;5.53;;
52868;SDS011;39100;53.480;6.158;2023-02-13T08:53:21;13.15;;;6.68;;
52868;SDS011;39100;53.480;6.158;2023-02-13T08:55:54;11.18;;;5.85;;
52868;SDS011;39100;53.480;6.158;2023-02-13T08:58:20;11.55;;;6.68;;
52868;SDS011;39100;53.480;6.158;2023-02-13T09:00:46;13.20;;;7.40;;
52868;SDS011;39100;53.480;6.158;2023-02-13T09:03:12;14.55;;;7.22;;
52868;SDS011;39100;53.480;6.158;2023-02-13T09:05:38;12.90;;;7.03;;
52868;SDS011;39100;53.480;6.158;2023-02-13T09:08:03;9.63;;;5.32;;
52868;SDS011;39100;53.480;6.158;2023-02-13T09:10:29;10.38;;;5.43;;
52868;SDS011;39100;53.480;6.158;2023-02-13T09:12:56;14.77;;;6.13;;
52868;SDS011;39100;53.480;6.158;2023-02-13T09:15:21;9.65;;;5.75;;
52868;SDS011;39100;53.480;6.158;2023-02-13T09:17:47;11.38;;;5.80;;
52868;SDS011;39100;53.480;6.158;2023-02-13T09:20:13;13.05;;;7.43;;
52868;SDS011;39100;53.480;6.158;2023-02-13T09:22:39;10.48;;;6.30;;
52868;SDS011;39100;53.480;6.158;2023-02-13T09:25:06;11.05;;;5.38;;
52868;SDS011;39100;53.480;6.158;2023-02-13T09:27:32;9.63;;;5.55;;
52868;SDS011;39100;53.480;6.158;2023-02-13T09:29:58;8.60;;;4.90;;
52868;SDS011;39100;53.480;6.158;2023-02-13T09:32:24;9.05;;;4.97;;
52868;SDS011;39100;53.480;6.158;2023-02-13T09:34:50;10.30;;;5.75;;
52868;SDS011;39100;53.480;6.158;2023-02-13T09:37:16;11.82;;;5.35;;
52868;SDS011;39100;53.480;6.158;2023-02-13T09:39:42;9.63;;;4.85;;
52868;SDS011;39100;53.480;6.158;2023-02-13T09:42:21;8.57;;;4.97;;
52868;SDS011;39100;53.480;6.158;2023-02-13T09:44:50;10.00;;;5.72;;
52868;SDS011;39100;53.480;6.158;2023-02-13T09:49:58;9.88;;;5.95;;
52868;SDS011;39100;53.480;6.158;2023-02-13T09:52:31;10.02;;;5.50;;
52868;SDS011;39100;53.480;6.158;2023-02-13T09:54:59;11.05;;;5.63;;
52868;SDS011;39100;53.480;6.158;2023-02-13T09:57:35;8.88;;;5.15;;
52868;SDS011;39100;53.480;6.158;2023-02-13T10:08:02;14.55;;;6.18;;
52868;SDS011;39100;53.480;6.158;2023-02-13T10:16:52;10.65;;;5.95;;
52868;SDS011;39100;53.480;6.158;2023-02-13T10:21:58;11.43;;;6.13;;
52868;SDS011;39100;53.480;6.158;2023-02-13T10:24:36;10.30;;;5.97;;
52868;SDS011;39100;53.480;6.158;2023-02-13T10:27:20;14.20;;;7.80;;
52868;SDS011;39100;53.480;6.158;2023-02-13T10:29:55;14.90;;;7.72;;
52868;SDS011;39100;53.480;6.158;2023-02-13T10:32:34;11.93;;;6.63;;
52868;SDS011;39100;53.480;6.158;2023-02-13T10:35:17;11.63;;;7.18;;
52868;SDS011;39100;53.480;6.158;2023-02-13T10:37:46;12.13;;;7.00;;
52868;SDS011;39100;53.480;6.158;2023-02-13T10:40:15;13.05;;;6.60;;
52868;SDS011;39100;53.480;6.158;2023-02-13T10:42:43;10.75;;;6.32;;
52868;SDS011;39100;53.480;6.158;2023-02-13T10:48:41;12.80;;;6.72;;
52868;SDS011;39100;53.480;6.158;2023-02-13T10:53:34;11.18;;;6.68;;
52868;SDS011;39100;53.480;6.158;2023-02-13T10:59:05;14.85;;;8.35;;
52868;SDS011;39100;53.480;6.158;2023-02-13T11:04:18;13.20;;;8.15;;
52868;SDS011;39100;53.480;6.158;2023-02-13T11:06:58;13.38;;;7.05;;
52868;SDS011;39100;53.480;6.158;2023-02-13T11:09:26;12.68;;;7.20;;
52868;SDS011;39100;53.480;6.158;2023-02-13T11:11:52;11.07;;;7.00;;
52868;SDS011;39100;53.480;6.158;2023-02-13T11:14:21;16.30;;;8.73;;
52868;SDS011;39100;53.480;6.158;2023-02-13T11:16:59;15.32;;;7.97;;
52868;SDS011;39100;53.480;6.158;2023-02-13T11:19:29;13.88;;;7.40;;
52868;SDS011;39100;53.480;6.158;2023-02-13T11:22:03;12.73;;;7.03;;
52868;SDS011;39100;53.480;6.158;2023-02-13T11:24:32;11.30;;;5.97;;
52868;SDS011;39100;53.480;6.158;2023-02-13T11:27:04;12.35;;;6.22;;
52868;SDS011;39100;53.480;6.158;2023-02-13T11:29:34;12.40;;;7.07;;
52868;SDS011;39100;53.480;6.158;2023-02-13T11:32:16;9.95;;;6.03;;
52868;SDS011;39100;53.480;6.158;2023-02-13T11:34:45;12.10;;;6.70;;
52868;SDS011;39100;53.480;6.158;2023-02-13T11:39:37;13.40;;;7.90;;
52868;SDS011;39100;53.480;6.158;2023-02-13T11:42:15;17.23;;;8.82;;
52868;SDS011;39100;53.480;6.158;2023-02-13T11:44:48;14.55;;;7.75;;
52868;SDS011;39100;53.480;6.158;2023-02-13T11:47:18;13.40;;;7.22;;
52868;SDS011;39100;53.480;6.158;2023-02-13T11:49:58;12.57;;;7.32;;
52868;SDS011;39100;53.480;6.158;2023-02-13T11:52:28;15.20;;;7.30;;
52868;SDS011;39100;53.480;6.158;2023-02-13T11:55:00;16.70;;;7.78;;
52868;SDS011;39100;53.480;6.158;2023-02-13T11:57:54;13.35;;;7.72;;
52868;SDS011;39100;53.480;6.158;2023-02-13T12:00:26;17.88;;;8.45;;
52868;SDS011;39100;53.480;6.158;2023-02-13T12:03:01;12.65;;;6.70;;
52868;SDS011;39100;53.480;6.158;2023-02-13T12:06:04;12.80;;;6.35;;
52868;SDS011;39100;53.480;6.158;2023-02-13T12:08:38;12.80;;;6.88;;
52868;SDS011;39100;53.480;6.158;2023-02-13T12:14:00;13.65;;;7.50;;
52868;SDS011;39100;53.480;6.158;2023-02-13T12:16:37;13.30;;;7.47;;
52868;SDS011;39100;53.480;6.158;2023-02-13T12:19:13;16.10;;;7.05;;
52868;SDS011;39100;53.480;6.158;2023-02-13T12:21:48;14.48;;;8.02;;
52868;SDS011;39100;53.480;6.158;2023-02-13T12:27:29;14.45;;;8.18;;
52868;SDS011;39100;53.480;6.158;2023-02-13T12:32:59;10.75;;;6.22;;
52868;SDS011;39100;53.480;6.158;2023-02-13T12:35:46;13.77;;;7.03;;
52868;SDS011;39100;53.480;6.158;2023-02-13T12:47:30;16.48;;;8.23;;
52868;SDS011;39100;53.480;6.158;2023-02-13T12:50:51;15.98;;;8.65;;
52868;SDS011;39100;53.480;6.158;2023-02-13T12:53:16;15.63;;;9.02;;
52868;SDS011;39100;53.480;6.158;2023-02-13T12:55:59;14.18;;;7.65;;
52868;SDS011;39100;53.480;6.158;2023-02-13T13:05:22;16.95;;;8.07;;
52868;SDS011;39100;53.480;6.158;2023-02-13T13:10:46;14.27;;;7.70;;
52868;SDS011;39100;53.480;6.158;2023-02-13T13:19:11;12.85;;;7.05;;
52868;SDS011;39100;53.480;6.158;2023-02-13T13:27:25;13.32;;;7.45;;
52868;SDS011;39100;53.480;6.158;2023-02-13T13:29:56;14.15;;;7.10;;
52868;SDS011;39100;53.480;6.158;2023-02-13T13:32:24;16.27;;;9.07;;
52868;SDS011;39100;53.480;6.158;2023-02-13T13:34:51;17.10;;;9.18;;
52868;SDS011;39100;53.480;6.158;2023-02-13T13:40:16;14.77;;;8.07;;
52868;SDS011;39100;53.480;6.158;2023-02-13T13:45:58;19.55;;;9.43;;
52868;SDS011;39100;53.480;6.158;2023-02-13T13:50:59;16.30;;;8.77;;
52868;SDS011;39100;53.480;6.158;2023-02-13T13:53:25;17.60;;;7.85;;
52868;SDS011;39100;53.480;6.158;2023-02-13T13:58:21;14.07;;;6.68;;
52868;SDS011;39100;53.480;6.158;2023-02-13T14:00:59;11.80;;;6.93;;
52868;SDS011;39100;53.480;6.158;2023-02-13T14:06:24;13.32;;;6.45;;
52868;SDS011;39100;53.480;6.158;2023-02-13T14:09:00;12.23;;;6.07;;
52868;SDS011;39100;53.480;6.158;2023-02-13T14:11:38;11.20;;;6.63;;
52868;SDS011;39100;53.480;6.158;2023-02-13T14:17:02;9.00;;;5.35;;
52868;SDS011;39100;53.480;6.158;2023-02-13T14:19:35;9.90;;;5.65;;
52868;SDS011;39100;53.480;6.158;2023-02-13T14:24:57;15.20;;;6.85;;
52868;SDS011;39100;53.480;6.158;2023-02-13T14:29:49;14.48;;;6.40;;
52868;SDS011;39100;53.480;6.158;2023-02-13T14:32:20;12.10;;;6.65;;
52868;SDS011;39100;53.480;6.158;2023-02-13T14:34:54;11.63;;;6.70;;
52868;SDS011;39100;53.480;6.158;2023-02-13T14:37:46;17.05;;;8.60;;
52868;SDS011;39100;53.480;6.158;2023-02-13T14:42:42;10.35;;;5.82;;
52868;SDS011;39100;53.480;6.158;2023-02-13T14:45:17;9.85;;;5.88;;
52868;SDS011;39100;53.480;6.158;2023-02-13T14:47:48;10.23;;;5.53;;
52868;SDS011;39100;53.480;6.158;2023-02-13T14:50:22;11.55;;;6.03;;
52868;SDS011;39100;53.480;6.158;2023-02-13T14:52:58;12.95;;;6.95;;
52868;SDS011;39100;53.480;6.158;2023-02-13T14:55:31;11.13;;;6.60;;
52868;SDS011;39100;53.480;6.158;2023-02-13T14:58:06;11.15;;;5.68;;
52868;SDS011;39100;53.480;6.158;2023-02-13T15:05:53;10.43;;;5.70;;
52868;SDS011;39100;53.480;6.158;2023-02-13T15:08:24;11.77;;;5.53;;
52868;SDS011;39100;53.480;6.158;2023-02-13T15:10:54;14.27;;;5.57;;
52868;SDS011;39100;53.480;6.158;2023-02-13T15:16:04;16.23;;;9.55;;
52868;SDS011;39100;53.480;6.158;2023-02-13T15:18:48;14.00;;;7.95;;
52868;SDS011;39100;53.480;6.158;2023-02-13T15:21:21;12.82;;;7.30;;
52868;SDS011;39100;53.480;6.158;2023-02-13T15:23:56;12.98;;;6.75;;
52868;SDS011;39100;53.480;6.158;2023-02-13T15:26:23;8.63;;;5.68;;
52868;SDS011;39100;53.480;6.158;2023-02-13T15:29:04;10.52;;;6.70;;
52868;SDS011;39100;53.480;6.158;2023-02-13T15:31:42;10.20;;;5.78;;
52868;SDS011;39100;53.480;6.158;2023-02-13T15:34:18;11.35;;;6.30;;
52868;SDS011;39100;53.480;6.158;2023-02-13T15:36:47;12.05;;;5.82;;
52868;SDS011;39100;53.480;6.158;2023-02-13T15:39:17;11.07;;;5.82;;
52868;SDS011;39100;53.480;6.158;2023-02-13T15:41:45;12.45;;;5.90;;
52868;SDS011;39100;53.480;6.158;2023-02-13T15:49:54;11.85;;;5.45;;
52868;SDS011;39100;53.480;6.158;2023-02-13T15:54:56;10.48;;;6.25;;
52868;SDS011;39100;53.480;6.158;2023-02-13T15:57:22;12.95;;;7.22;;
52868;SDS011;39100;53.480;6.158;2023-02-13T15:59:49;11.02;;;6.35;;
52868;SDS011;39100;53.480;6.158;2023-02-13T16:02:17;13.10;;;6.43;;
52868;SDS011;39100;53.480;6.158;2023-02-13T16:04:49;10.38;;;5.72;;
52868;SDS011;39100;53.480;6.158;2023-02-13T16:07:17;9.23;;;5.65;;
52868;SDS011;39100;53.480;6.158;2023-02-13T16:09:43;9.50;;;5.40;;
52868;SDS011;39100;53.480;6.158;2023-02-13T16:12:24;9.50;;;5.50;;
52868;SDS011;39100;53.480;6.158;2023-02-13T16:14:56;11.23;;;6.28;;
52868;SDS011;39100;53.480;6.158;2023-02-13T16:17:27;11.20;;;6.07;;
52868;SDS011;39100;53.480;6.158;2023-02-13T16:19:57;9.25;;;5.90;;
52868;SDS011;39100;53.480;6.158;2023-02-13T16:22:43;7.82;;;4.80;;
52868;SDS011;39100;53.480;6.158;2023-02-13T16:27:47;13.13;;;6.05;;
52868;SDS011;39100;53.480;6.158;2023-02-13T16:31:00;11.00;;;5.55;;
52868;SDS011;39100;53.480;6.158;2023-02-13T16:33:49;9.88;;;5.88;;
52868;SDS011;39100;53.480;6.158;2023-02-13T16:35:53;9.65;;;5.15;;
52868;SDS011;39100;53.480;6.158;2023-02-13T16:38:33;9.43;;;5.72;;
52868;SDS011;39100;53.480;6.158;2023-02-13T16:41:25;9.48;;;5.30;;
52868;SDS011;39100;53.480;6.158;2023-02-13T16:43:51;9.73;;;5.57;;
52868;SDS011;39100;53.480;6.158;2023-02-13T16:46:34;9.07;;;5.13;;
52868;SDS011;39100;53.480;6.158;2023-02-13T16:49:21;10.60;;;5.70;;
52868;SDS011;39100;53.480;6.158;2023-02-13T16:51:48;10.77;;;5.60;;
52868;SDS011;39100;53.480;6.158;2023-02-13T16:54:35;8.63;;;5.07;;
52868;SDS011;39100;53.480;6.158;2023-02-13T16:59:41;8.93;;;5.07;;
52868;SDS011;39100;53.480;6.158;2023-02-13T17:02:17;9.00;;;5.20;;
52868;SDS011;39100;53.480;6.158;2023-02-13T17:04:47;8.90;;;4.90;;
52868;SDS011;39100;53.480;6.158;2023-02-13T17:07:15;10.48;;;5.25;;
52868;SDS011;39100;53.480;6.158;2023-02-13T17:10:20;11.30;;;5.45;;
52868;SDS011;39100;53.480;6.158;2023-02-13T17:12:45;11.05;;;5.50;;
52868;SDS011;39100;53.480;6.158;2023-02-13T17:15:12;10.20;;;5.28;;
52868;SDS011;39100;53.480;6.158;2023-02-13T17:17:39;9.90;;;5.32;;
52868;SDS011;39100;53.480;6.158;2023-02-13T17:20:05;11.10;;;5.38;;
52868;SDS011;39100;53.480;6.158;2023-02-13T17:22:36;10.82;;;5.15;;
52868;SDS011;39100;53.480;6.158;2023-02-13T17:27:44;10.95;;;6.70;;
52868;SDS011;39100;53.480;6.158;2023-02-13T17:30:21;13.75;;;6.72;;
52868;SDS011;39100;53.480;6.158;2023-02-13T17:32:56;11.20;;;5.63;;
52868;SDS011;39100;53.480;6.158;2023-02-13T17:35:35;9.65;;;5.47;;
52868;SDS011;39100;53.480;6.158;2023-02-13T17:38:01;11.25;;;6.05;;